Terminal Aerodrome Forecast
Issued by NWS

Home | Current Version | Previous Version | Text Only | Print | Product List | Glossary On
Versions: 1 2 3 4 5 6 7 8 9 10 11 12 13 14 15 16 17 18 19
000
FTUS41 KAKQ 022031 AAB
TAFPHF
TAF AMD
KPHF 022031Z 0221/0318 23005KT P6SM -TSRA BKN050CB BKN250
      TEMPO 0221/0222 VRB20G30KT 1SM TSRA BR OVC030CB
     FM030000 VRB03KT P6SM BKN250=

USA.gov is the U.S. government's official web portal to all federal, state and local government web resources and services.